Latest Weather Observations for Parawa West

IDS60801

Issued at 8:31 am CDT Monday 27 January 2020 (issued every 10 minutes, with the page automatically refreshed every 10 minutes)

About weather observations | Map of weather stations | Latest weather observations for SA | Other Formats
Station Details ID: 023875 Name: SECOND VALLEY FOREST AWS Lat: -35.57 Lon: 138.29 Height: 341.0 m
Data from the previous 72 hours. | See also: Recent months at Parawa West
Date/Time
CDT
Temp
°C
App
Temp
°C
Dew
Point
°C
Rel
Hum
%
Delta-T
°C
Wind Press
QNH
hPa
Press
MSL
hPa
Rain since
9am
mm
Dir  Spd
km/h
Gust
km/h
Spd
kts
Gust
kts
27/08:30am 15.8 15.3 12.5 81 1.8 SE 7 11 4 6 1016.8 1015.8 0.0
27/08:00am 15.7 15.9 13.0 84 1.5 ENE 4 7 2 4 1016.4 1015.4 0.0
27/07:30am 14.4 13.1 12.6 89 1.0 ENE 11 15 6 8 1015.8 1014.7 0.0
27/07:00am 12.8 12.3 11.9 94 0.5 SE 6 9 3 5 1016.5 1015.5 0.0
27/06:30am 12.4 12.1 11.5 94 0.5 SE 4 6 2 3 1016.4 1015.4 0.0
27/06:00am 11.7 10.8 10.8 94 0.5 SE 6 7 3 4 1016.2 1015.1 0.0
27/05:30am 12.1 11.3 11.2 94 0.5 ESE 6 7 3 4 1016.1 1015.0 0.0
27/05:00am 12.3 11.5 11.2 93 0.6 ESE 6 6 3 3 1015.8 1014.7 0.0
27/04:30am 12.8 12.1 11.5 92 0.7 ESE 6 6 3 3 1015.7 1014.6 0.0
27/04:00am 12.1 11.2 10.5 90 0.8 ESE 6 9 3 5 1016.0 1014.9 0.0
27/03:30am 12.8 12.1 11.4 91 0.8 ESE 6 7 3 4 1016.1 1015.0 0.0
27/03:00am 12.5 11.4 10.7 89 1.0 SE 7 9 4 5 1016.6 1015.6 0.0
27/02:30am 13.2 11.9 11.1 87 1.1 SSE 9 11 5 6 1016.5 1015.5 0.0
27/02:00am 14.0 12.3 11.3 84 1.5 SE 11 15 6 8 1016.4 1015.4 0.0
27/01:30am 15.0 13.3 12.5 85 1.4 SSE 13 19 7 10 1016.8 1015.8 0.0
27/01:00am 15.1 14.0 13.0 87 1.2 SE 11 17 6 9 1016.7 1015.7 0.0
27/12:30am 15.0 13.9 13.2 89 1.0 SSE 11 15 6 8 1016.8 1015.8 0.0
27/12:00am 14.3 13.1 12.7 90 0.9 SE 11 13 6 7 1016.9 1015.9 0.0
 
Date/Time
CDT
Temp
°C
App
Temp
°C
Dew
Point
°C
Rel
Hum
%
Delta-T
°C
Wind Press
QNH
hPa
Press
MSL
hPa
Rain since
9am
mm
Dir  Spd
km/h
Gust
km/h
Spd
kts
Gust
kts
26/11:30pm 15.1 13.7 13.3 89 1.0 SE 13 17 7 9 1017.0 1016.0 0.0
26/11:00pm 15.4 13.6 13.4 88 1.1 SE 15 19 8 10 1017.3 1016.2 0.0
26/10:30pm 15.2 13.8 13.4 89 1.0 SE 13 17 7 9 1017.3 1016.2 0.0
26/10:00pm 15.6 14.0 13.8 89 1.0 SE 15 19 8 10 1017.3 1016.2 0.0
26/09:30pm 15.5 13.9 13.9 90 0.9 SE 15 19 8 10 1017.1 1016.1 0.0
26/09:00pm 15.4 13.2 13.2 87 1.2 SSE 17 20 9 11 1016.9 1015.9 0.0
26/08:30pm 15.9 13.8 13.7 87 1.3 SSE 17 22 9 12 1016.8 1015.8 0.0
26/08:00pm 15.8 13.2 13.1 84 1.5 SSE 19 24 10 13 1016.5 1015.5 0.0
26/07:30pm 16.9 14.7 13.2 79 2.1 SSE 17 24 9 13 1016.5 1015.5 0.0
26/07:00pm 17.4 14.8 13.3 77 2.3 SSE 19 24 10 13 1016.0 1014.9 0.0
26/06:30pm 17.9 15.4 13.6 76 2.5 SSE 19 22 10 12 1016.1 1015.0 0.0
26/06:00pm 18.5 16.0 13.6 73 2.8 SSE 19 22 10 12 1015.9 1014.8 0.0
26/05:30pm 19.5 18.4 14.3 72 3.1 SSE 13 19 7 10 1016.0 1014.9 0.0
26/05:00pm 19.9 18.3 14.0 69 3.5 SSE 15 22 8 12 1016.1 1015.0 0.0
26/04:30pm 19.7 18.2 14.3 71 3.2 SSE 15 22 8 12 1015.9 1014.8 0.0
26/04:00pm 19.3 17.4 14.1 72 3.0 SSE 17 24 9 13 1016.2 1015.1 0.0
26/03:30pm 18.8 17.2 14.9 78 2.3 SE 17 22 9 12 1016.1 1015.0 0.0
26/03:00pm 20.6 19.8 16.0 75 2.8 S 15 20 8 11 1016.2 1015.1 0.0
26/02:30pm 20.2 18.2 15.0 72 3.1 S 19 26 10 14 1016.4 1015.4 0.0
26/02:00pm 20.3 18.5 14.4 69 3.5 SSE 17 26 9 14 1016.8 1015.8 0.0
26/01:30pm 21.1 19.2 14.3 65 4.0 S 17 28 9 15 1017.0 1016.0 0.0
26/01:00pm 19.9 19.6 14.5 71 3.2 SSE 9 19 5 10 1017.3 1016.2 0.0
26/12:30pm 19.5 18.8 14.3 72 3.1 S 11 17 6 9 1017.3 1016.2 0.0
26/12:00pm 20.3 19.6 15.3 73 3.0 SSE 13 19 7 10 1017.4 1016.3 0.0
26/11:30am 19.7 19.4 14.5 72 3.1 S 9 20 5 11 1017.6 1016.5 0.0
26/11:00am 19.3 19.3 14.3 73 2.9 SW 7 19 4 10 1017.3 1016.2 0.0
26/10:30am 18.4 18.6 14.3 77 2.4 WNW 6 11 3 6 1017.5 1016.4 0.0
26/10:00am 17.9 18.0 14.4 80 2.0 NW 7 19 4 10 1017.3 1016.2 0.0
26/09:30am 16.8 16.8 15.2 90 0.9 NW 9 13 5 7 1016.8 1015.8 0.0
26/09:00am 15.8 16.0 14.8 94 0.6 SW 7 13 4 7 1017.5 1016.4 0.4
26/08:30am 15.8 16.3 15.0 95 0.5 WSW 6 9 3 5 1017.1 1016.1 0.4
26/08:00am 15.3 16.1 14.7 96 0.3 WSW 4 6 2 3 1016.5 1015.5 0.4
26/07:30am 14.9 15.6 14.4 97 0.3 WSW 4 6 2 3 1016.3 1015.3 0.4
26/07:00am 14.7 15.0 14.4 98 0.2 SW 6 7 3 4 1016.3 1015.3 0.4
26/06:30am 14.8 15.5 14.5 98 0.2 SW 4 6 2 3 1016.0 1014.9 0.4
26/06:00am 14.7 15.4 14.4 98 0.2 SW 4 6 2 3 1015.7 1014.6 0.4
26/05:30am 14.9 15.1 14.6 98 0.2 SW 7 13 4 7 1015.7 1014.6 0.2
26/05:00am 15.2 15.1 14.9 98 0.2 SSW 9 15 5 8 1015.6 1014.5 0.2
26/04:30am 15.4 15.9 15.1 98 0.2 SSW 6 11 3 6 1015.1 1014.0 0.2
26/04:00am 15.4 16.3 15.1 98 0.2 SSW 4 4 2 2 1014.7 1013.6 0.2
26/03:30am 15.4 16.3 15.1 98 0.2 SSW 4 6 2 3 1014.9 1013.8 0.2
26/03:00am 15.6 16.6 15.3 98 0.2 SSW 4 6 2 3 1014.5 1013.4 0.2
26/02:30am 15.6 17.0 15.3 98 0.2 SSW 2 4 1 2 1014.8 1013.7 0.2
26/02:00am 15.7 17.0 15.2 97 0.3 SSW 2 6 1 3 1015.0 1013.9 0.2
26/01:30am 15.8 16.4 15.3 97 0.3 S 6 9 3 5 1015.2 1014.1 0.2
26/01:00am 15.9 16.0 15.4 97 0.3 S 9 15 5 8 1015.6 1014.5 0.2
26/12:30am 16.1 15.9 15.6 97 0.3 S 11 17 6 9 1015.6 1014.5 0.2
26/12:00am 16.2 16.0 15.6 96 0.4 S 11 15 6 8 1015.6 1014.5 0.2
 
Date/Time
CDT
Temp
°C
App
Temp
°C
Dew
Point
°C
Rel
Hum
%
Delta-T
°C
Wind Press
QNH
hPa
Press
MSL
hPa
Rain since
9am
mm
Dir  Spd
km/h
Gust
km/h
Spd
kts
Gust
kts
25/11:30pm 16.2 15.2 15.6 96 0.4 S 15 19 8 10 1015.7 1014.6 0.2
25/11:00pm 16.3 15.6 15.5 95 0.5 SSE 13 17 7 9 1015.9 1014.8 0.2
25/10:30pm 16.2 16.2 15.2 94 0.6 SSE 9 15 5 8 1016.0 1014.9 0.2
25/10:00pm 16.3 16.8 15.5 95 0.5 SSE 7 9 4 5 1016.0 1014.9 0.2
25/09:30pm 16.1 16.5 15.3 95 0.5 WNW 7 9 4 5 1015.7 1014.6 0.2
25/09:00pm 16.0 16.5 14.9 93 0.6 WNW 6 7 3 4 1015.7 1014.6 0.2
25/08:30pm 16.6 17.0 14.8 89 1.1 WNW 6 7 3 4 1015.5 1014.4 0.2
25/08:00pm 18.6 18.8 14.7 78 2.3 WNW 7 11 4 6 1015.3 1014.2 0.2
25/07:30pm 19.4 18.9 14.9 75 2.7 NW 11 15 6 8 1015.0 1013.9 0.2
25/07:00pm 19.9 19.4 14.9 73 3.0 WNW 11 17 6 9 1014.9 1013.8 0.2
25/06:30pm 20.4 19.3 14.3 68 3.6 NW 13 19 7 10 1014.7 1013.6 0.2
25/06:00pm 21.6 20.2 14.5 64 4.2 NW 15 22 8 12 1014.6 1013.5 0.2
25/05:30pm 21.0 18.6 13.7 63 4.3 NW 19 28 10 15 1014.6 1013.5 0.2
25/05:00pm 21.7 20.3 15.5 68 3.8 NW 17 28 9 15 1014.7 1013.6 0.2
25/04:30pm 21.9 19.7 14.3 62 4.5 WNW 19 28 10 15 1014.8 1013.7 0.2
25/04:00pm 21.5 18.9 13.7 61 4.6 WNW 20 32 11 17 1015.0 1013.9 0.2
25/03:30pm 21.8 19.3 14.2 62 4.5 WNW 20 33 11 18 1015.3 1014.2 0.2
25/03:00pm 20.3 18.5 14.4 69 3.5 NW 17 26 9 14 1015.6 1014.5 0.2
25/02:30pm 19.5 17.6 14.1 71 3.2 WNW 17 24 9 13 1015.7 1014.6 0.2
25/02:00pm 20.3 18.2 13.5 65 4.0 WNW 17 26 9 14 1015.6 1014.5 0.2
25/01:30pm 21.0 19.6 14.6 67 3.8 NW 15 24 8 13 1015.9 1014.8 0.2
25/01:00pm 19.3 17.2 13.7 70 3.3 WNW 17 26 9 14 1016.2 1015.1 0.2
25/12:30pm 19.9 17.7 14.5 71 3.2 NW 19 32 10 17 1016.4 1015.4 0.2
25/12:00pm 19.2 16.5 13.6 70 3.2 WNW 20 30 11 16 1016.4 1015.4 0.2
25/11:30am 18.4 16.1 14.1 76 2.5 WNW 19 24 10 13 1016.4 1015.4 0.2
25/11:00am 17.7 15.4 14.2 80 2.0 NW 19 26 10 14 1016.5 1015.5 0.0
25/10:30am 17.2 15.1 13.7 80 2.0 NW 17 24 9 13 1016.5 1015.5 0.0
25/10:00am 17.3 15.9 14.4 83 1.7 NW 15 20 8 11 1016.5 1015.5 0.0
25/09:30am 16.8 14.9 14.3 85 1.5 NW 17 24 9 13 1016.4 1015.4 0.0
25/09:00am 16.1 14.4 14.6 91 0.9 NW 17 24 9 13 1016.4 1015.4 0.2
25/08:30am 15.7 14.9 15.2 97 0.3 NW 13 19 7 10 1016.3 1015.3 0.2
25/08:00am 15.7 15.0 15.4 98 0.2 NW 13 26 7 14 1016.1 1015.0 0.2
25/07:30am 15.7 14.6 15.2 97 0.3 NW 15 22 8 12 1015.7 1014.6 0.2
25/07:00am 15.4 15.2 14.8 96 0.3 NW 9 15 5 8 1015.6 1014.5 0.2
25/06:30am 15.2 15.0 14.7 97 0.3 NW 9 13 5 7 1015.5 1014.4 0.2
25/06:00am 14.9 14.6 14.4 97 0.3 NW 9 13 5 7 1015.2 1014.1 0.2
25/05:30am 15.0 14.8 14.7 98 0.2 NW 9 13 5 7 1015.3 1014.2 0.2
25/05:00am 15.1 14.9 14.8 98 0.2 WNW 9 11 5 6 1015.2 1014.1 0.2
25/04:30am 15.1 15.3 14.8 98 0.2 NW 7 11 4 6 1015.1 1014.0 0.2
25/04:00am 14.9 15.2 14.6 98 0.2 NW 6 9 3 5 1015.3 1014.2 0.2
25/03:30am 14.8 14.8 14.3 97 0.3 WNW 7 13 4 7 1015.4 1014.3 0.2
25/03:00am 14.6 14.2 14.0 96 0.3 WNW 9 13 5 7 1015.4 1014.3 0.2
25/02:30am 14.5 14.3 13.7 95 0.5 WNW 7 15 4 8 1015.5 1014.4 0.2
25/02:00am 14.8 14.3 13.8 94 0.6 WNW 9 15 5 8 1015.6 1014.5 0.2
25/01:30am 15.1 15.0 14.0 93 0.6 WNW 7 11 4 6 1015.7 1014.6 0.2
25/01:00am 14.9 14.4 13.9 94 0.6 W 9 13 5 7 1015.8 1014.7 0.2
25/12:30am 15.1 14.3 14.1 94 0.6 W 11 15 6 8 1015.8 1014.7 0.2
25/12:00am 15.1 14.7 14.1 94 0.6 W 9 15 5 8 1015.7 1014.6 0.2
 
Date/Time
CDT
Temp
°C
App
Temp
°C
Dew
Point
°C
Rel
Hum
%
Delta-T
°C
Wind Press
QNH
hPa
Press
MSL
hPa
Rain since
9am
mm
Dir  Spd
km/h
Gust
km/h
Spd
kts
Gust
kts
24/11:30pm 15.1 14.3 14.1 94 0.6 W 11 17 6 9 1015.7 1014.6 0.2
24/11:00pm 15.1 14.7 14.1 94 0.6 WNW 9 13 5 7 1015.6 1014.5 0.2
24/10:30pm 15.3 15.2 13.8 91 0.9 WNW 7 9 4 5 1015.8 1014.7 0.2
24/10:00pm 15.5 14.7 13.9 90 0.9 WNW 11 17 6 9 1015.8 1014.7 0.2
24/09:30pm 15.4 14.5 13.8 90 0.9 W 11 17 6 9 1015.6 1014.5 0.2
24/09:00pm 15.6 14.7 13.6 88 1.1 WNW 11 17 6 9 1015.4 1014.3 0.2
24/08:30pm 15.9 14.1 13.2 84 1.5 WNW 15 24 8 13 1015.1 1014.0 0.2
24/08:00pm 16.1 14.5 12.8 81 1.9 WNW 13 19 7 10 1014.9 1013.8 0.2
24/07:30pm 16.8 14.9 13.1 79 2.1 WNW 15 22 8 12 1014.7 1013.6 0.2
24/07:00pm 17.3 14.4 13.0 76 2.4 WNW 20 30 11 16 1014.4 1013.3 0.2
24/06:30pm 17.7 14.1 11.9 69 3.2 WNW 22 32 12 17 1014.2 1013.1 0.2
24/06:00pm 18.5 15.3 11.8 65 3.7 WNW 20 33 11 18 1014.2 1013.1 0.2
24/05:30pm 19.4 16.7 12.9 66 3.7 WNW 19 33 10 18 1014.0 1013.0 0.2
24/05:00pm 18.4 14.8 11.9 66 3.6 WNW 22 35 12 19 1014.2 1013.1 0.2
24/04:30pm 18.6 15.4 13.0 70 3.2 WNW 22 32 12 17 1014.5 1013.4 0.2
24/04:00pm 17.8 13.6 12.5 71 3.0 WNW 26 37 14 20 1014.7 1013.6 0.2
24/03:30pm 17.7 14.2 12.2 70 3.1 NW 22 37 12 20 1014.8 1013.7 0.2
24/03:00pm 18.1 14.7 12.5 70 3.2 NW 22 37 12 20 1014.8 1013.7 0.2
24/02:30pm 16.9 14.0 12.4 75 2.5 WNW 19 28 10 15 1015.2 1014.1 0.2
24/02:00pm 16.9 13.4 12.2 74 2.6 NW 22 35 12 19 1015.3 1014.2 0.2
24/01:30pm 16.3 12.3 11.9 75 2.4 WNW 24 33 13 18 1015.4 1014.3 0.2
24/01:00pm 17.5 13.9 12.0 70 3.1 NW 22 33 12 18 1015.3 1014.2 0.2
24/12:30pm 16.3 13.1 11.9 75 2.4 WNW 20 32 11 17 1015.3 1014.2 0.2
24/12:00pm 16.7 14.3 12.5 76 2.4 NW 17 26 9 14 1015.3 1014.2 0.2
24/11:30am 15.5 12.9 13.2 86 1.3 WNW 19 30 10 16 1015.2 1014.1 0.2
24/11:00am 14.9 12.4 12.2 84 1.5 WNW 17 26 9 14 1015.2 1014.1 0.0
24/10:30am 15.4 13.0 12.7 84 1.5 WNW 17 32 9 17 1014.8 1013.7 0.0
24/10:00am 15.4 12.4 11.8 79 2.0 WNW 19 32 10 17 1014.6 1013.5 0.0
24/09:30am 15.1 12.3 11.3 78 2.1 WNW 17 28 9 15 1014.4 1013.3 0.0
24/09:00am 14.8 13.3 10.6 76 2.3 WNW 9 15 5 8 1014.0 1013.0 0.0

Other formats

Comma delimited format used in spreadsheet applications
http://www.bom.gov.au/fwo/IDS60801/IDS60801.94811.axf

JavaScript Object Notation format (JSON) in row-major order
http://www.bom.gov.au/fwo/IDS60801/IDS60801.94811.json

Data quality

Most of these data are generated automatically and are frequently updated. Quality checks on data are not normally performed. It is possible for incorrect values to appear. Refer to information at About Latest Weather Observations and please check the disclaimer before using these data.